sensor_id;sensor_type;location;lat;lon;timestamp;P1;durP1;ratioP1;P2;durP2;ratioP2
33162;SDS011;29282;45.656;11.302;2022-10-31T00:01:01;4.25;;;2.45;;
33162;SDS011;29282;45.656;11.302;2022-10-31T00:03:26;4.30;;;2.80;;
33162;SDS011;29282;45.656;11.302;2022-10-31T00:05:52;4.63;;;2.60;;
33162;SDS011;29282;45.656;11.302;2022-10-31T00:08:18;3.20;;;2.72;;
33162;SDS011;29282;45.656;11.302;2022-10-31T00:10:44;3.65;;;2.75;;
33162;SDS011;29282;45.656;11.302;2022-10-31T00:13:11;3.38;;;2.53;;
33162;SDS011;29282;45.656;11.302;2022-10-31T00:15:38;3.58;;;2.65;;
33162;SDS011;29282;45.656;11.302;2022-10-31T00:18:05;3.17;;;2.58;;
33162;SDS011;29282;45.656;11.302;2022-10-31T00:20:32;4.30;;;2.63;;
33162;SDS011;29282;45.656;11.302;2022-10-31T00:22:58;3.60;;;2.38;;
33162;SDS011;29282;45.656;11.302;2022-10-31T00:25:24;3.90;;;2.45;;
33162;SDS011;29282;45.656;11.302;2022-10-31T00:27:50;4.43;;;2.72;;
33162;SDS011;29282;45.656;11.302;2022-10-31T00:30:15;3.08;;;2.58;;
33162;SDS011;29282;45.656;11.302;2022-10-31T00:32:41;3.65;;;2.67;;
33162;SDS011;29282;45.656;11.302;2022-10-31T00:35:06;2.85;;;2.58;;
33162;SDS011;29282;45.656;11.302;2022-10-31T00:37:32;5.07;;;2.53;;
33162;SDS011;29282;45.656;11.302;2022-10-31T00:39:58;3.10;;;2.55;;
33162;SDS011;29282;45.656;11.302;2022-10-31T00:42:23;3.55;;;2.53;;
33162;SDS011;29282;45.656;11.302;2022-10-31T00:44:48;3.78;;;2.50;;
33162;SDS011;29282;45.656;11.302;2022-10-31T00:47:14;2.75;;;2.30;;
33162;SDS011;29282;45.656;11.302;2022-10-31T00:49:39;3.83;;;2.47;;
33162;SDS011;29282;45.656;11.302;2022-10-31T00:52:05;3.90;;;2.30;;
33162;SDS011;29282;45.656;11.302;2022-10-31T00:54:31;2.63;;;2.42;;
33162;SDS011;29282;45.656;11.302;2022-10-31T00:56:57;4.85;;;2.75;;
33162;SDS011;29282;45.656;11.302;2022-10-31T00:59:22;3.70;;;2.58;;
33162;SDS011;29282;45.656;11.302;2022-10-31T01:01:48;5.00;;;2.60;;
33162;SDS011;29282;45.656;11.302;2022-10-31T01:04:16;3.08;;;2.42;;
33162;SDS011;29282;45.656;11.302;2022-10-31T01:06:42;4.53;;;2.60;;
33162;SDS011;29282;45.656;11.302;2022-10-31T01:09:07;3.75;;;2.60;;
33162;SDS011;29282;45.656;11.302;2022-10-31T01:11:33;4.28;;;2.40;;
33162;SDS011;29282;45.656;11.302;2022-10-31T01:13:59;4.82;;;2.65;;
33162;SDS011;29282;45.656;11.302;2022-10-31T01:16:25;3.60;;;2.58;;
33162;SDS011;29282;45.656;11.302;2022-10-31T01:18:51;3.25;;;2.38;;
33162;SDS011;29282;45.656;11.302;2022-10-31T01:21:18;3.45;;;2.50;;
33162;SDS011;29282;45.656;11.302;2022-10-31T01:23:46;3.75;;;2.33;;
33162;SDS011;29282;45.656;11.302;2022-10-31T01:26:14;4.70;;;2.80;;
33162;SDS011;29282;45.656;11.302;2022-10-31T01:31:13;4.72;;;2.90;;
33162;SDS011;29282;45.656;11.302;2022-10-31T01:33:38;4.47;;;2.45;;
33162;SDS011;29282;45.656;11.302;2022-10-31T01:36:11;4.43;;;2.63;;
33162;SDS011;29282;45.656;11.302;2022-10-31T01:38:37;3.30;;;2.40;;
33162;SDS011;29282;45.656;11.302;2022-10-31T01:41:03;4.38;;;2.80;;
33162;SDS011;29282;45.656;11.302;2022-10-31T01:46:28;2.97;;;2.20;;
33162;SDS011;29282;45.656;11.302;2022-10-31T01:49:02;4.68;;;2.38;;
33162;SDS011;29282;45.656;11.302;2022-10-31T01:51:36;4.55;;;2.38;;
33162;SDS011;29282;45.656;11.302;2022-10-31T01:54:08;4.55;;;2.22;;
33162;SDS011;29282;45.656;11.302;2022-10-31T01:56:37;6.50;;;2.65;;
33162;SDS011;29282;45.656;11.302;2022-10-31T01:59:06;3.42;;;2.67;;
33162;SDS011;29282;45.656;11.302;2022-10-31T02:01:35;3.90;;;2.55;;
33162;SDS011;29282;45.656;11.302;2022-10-31T02:04:01;5.97;;;2.50;;
33162;SDS011;29282;45.656;11.302;2022-10-31T02:06:48;3.83;;;2.47;;
33162;SDS011;29282;45.656;11.302;2022-10-31T02:09:24;3.15;;;2.10;;
33162;SDS011;29282;45.656;11.302;2022-10-31T02:11:51;3.83;;;2.60;;
33162;SDS011;29282;45.656;11.302;2022-10-31T02:14:20;3.38;;;2.20;;
33162;SDS011;29282;45.656;11.302;2022-10-31T02:16:48;3.60;;;2.58;;
33162;SDS011;29282;45.656;11.302;2022-10-31T02:19:16;3.10;;;2.28;;
33162;SDS011;29282;45.656;11.302;2022-10-31T02:21:52;3.00;;;2.60;;
33162;SDS011;29282;45.656;11.302;2022-10-31T02:29:54;4.28;;;2.35;;
33162;SDS011;29282;45.656;11.302;2022-10-31T02:37:58;3.55;;;2.65;;
33162;SDS011;29282;45.656;11.302;2022-10-31T02:40:27;3.83;;;2.38;;
33162;SDS011;29282;45.656;11.302;2022-10-31T02:43:09;2.63;;;2.05;;
33162;SDS011;29282;45.656;11.302;2022-10-31T02:46:27;3.97;;;2.40;;
33162;SDS011;29282;45.656;11.302;2022-10-31T02:48:39;3.50;;;2.30;;
33162;SDS011;29282;45.656;11.302;2022-10-31T02:51:07;3.75;;;2.20;;
33162;SDS011;29282;45.656;11.302;2022-10-31T02:53:35;4.05;;;2.25;;
33162;SDS011;29282;45.656;11.302;2022-10-31T02:58:42;4.10;;;2.50;;
33162;SDS011;29282;45.656;11.302;2022-10-31T03:06:41;4.65;;;2.42;;
33162;SDS011;29282;45.656;11.302;2022-10-31T03:17:12;2.88;;;2.58;;
33162;SDS011;29282;45.656;11.302;2022-10-31T03:19:47;2.85;;;2.33;;
33162;SDS011;29282;45.656;11.302;2022-10-31T03:22:22;3.47;;;2.40;;
33162;SDS011;29282;45.656;11.302;2022-10-31T03:24:50;3.78;;;2.38;;
33162;SDS011;29282;45.656;11.302;2022-10-31T03:27:18;4.20;;;2.40;;
33162;SDS011;29282;45.656;11.302;2022-10-31T03:29:50;4.53;;;2.60;;
33162;SDS011;29282;45.656;11.302;2022-10-31T03:32:20;2.95;;;2.20;;
33162;SDS011;29282;45.656;11.302;2022-10-31T03:34:58;2.80;;;2.47;;
33162;SDS011;29282;45.656;11.302;2022-10-31T03:37:31;3.83;;;2.08;;
33162;SDS011;29282;45.656;11.302;2022-10-31T03:39:59;3.17;;;2.08;;
33162;SDS011;29282;45.656;11.302;2022-10-31T03:42:29;3.30;;;2.38;;
33162;SDS011;29282;45.656;11.302;2022-10-31T03:45:17;2.70;;;1.98;;
33162;SDS011;29282;45.656;11.302;2022-10-31T03:47:48;2.85;;;2.50;;
33162;SDS011;29282;45.656;11.302;2022-10-31T03:50:14;3.70;;;2.30;;
33162;SDS011;29282;45.656;11.302;2022-10-31T03:55:19;2.35;;;2.15;;
33162;SDS011;29282;45.656;11.302;2022-10-31T03:57:51;3.85;;;2.55;;
33162;SDS011;29282;45.656;11.302;2022-10-31T04:00:22;3.23;;;2.20;;
33162;SDS011;29282;45.656;11.302;2022-10-31T04:05:22;2.10;;;1.88;;
33162;SDS011;29282;45.656;11.302;2022-10-31T04:07:53;3.90;;;2.30;;
33162;SDS011;29282;45.656;11.302;2022-10-31T04:10:21;3.40;;;2.33;;
33162;SDS011;29282;45.656;11.302;2022-10-31T04:12:50;4.32;;;2.30;;
33162;SDS011;29282;45.656;11.302;2022-10-31T04:15:21;2.65;;;2.40;;
33162;SDS011;29282;45.656;11.302;2022-10-31T04:17:48;2.55;;;1.70;;
33162;SDS011;29282;45.656;11.302;2022-10-31T04:20:17;3.97;;;2.05;;
33162;SDS011;29282;45.656;11.302;2022-10-31T04:22:43;3.78;;;1.98;;
33162;SDS011;29282;45.656;11.302;2022-10-31T04:25:08;3.58;;;2.53;;
33162;SDS011;29282;45.656;11.302;2022-10-31T04:27:34;4.35;;;2.10;;
33162;SDS011;29282;45.656;11.302;2022-10-31T04:29:59;3.30;;;2.17;;
33162;SDS011;29282;45.656;11.302;2022-10-31T04:32:25;3.03;;;2.22;;
33162;SDS011;29282;45.656;11.302;2022-10-31T04:34:51;2.72;;;2.20;;
33162;SDS011;29282;45.656;11.302;2022-10-31T04:37:16;2.75;;;2.13;;
33162;SDS011;29282;45.656;11.302;2022-10-31T04:39:42;5.00;;;2.20;;
33162;SDS011;29282;45.656;11.302;2022-10-31T04:42:07;3.25;;;2.13;;
33162;SDS011;29282;45.656;11.302;2022-10-31T04:44:33;3.72;;;2.03;;
33162;SDS011;29282;45.656;11.302;2022-10-31T04:46:58;2.72;;;2.10;;
33162;SDS011;29282;45.656;11.302;2022-10-31T04:49:24;3.10;;;2.22;;
33162;SDS011;29282;45.656;11.302;2022-10-31T04:51:49;4.72;;;2.30;;
33162;SDS011;29282;45.656;11.302;2022-10-31T04:54:15;2.95;;;2.10;;
33162;SDS011;29282;45.656;11.302;2022-10-31T04:56:41;2.85;;;2.42;;
33162;SDS011;29282;45.656;11.302;2022-10-31T04:59:06;3.63;;;2.28;;
33162;SDS011;29282;45.656;11.302;2022-10-31T05:01:32;3.42;;;2.45;;
33162;SDS011;29282;45.656;11.302;2022-10-31T05:03:57;3.58;;;2.20;;
33162;SDS011;29282;45.656;11.302;2022-10-31T05:06:23;2.30;;;2.10;;
33162;SDS011;29282;45.656;11.302;2022-10-31T05:08:48;3.78;;;2.15;;
33162;SDS011;29282;45.656;11.302;2022-10-31T05:11:14;2.80;;;2.20;;
33162;SDS011;29282;45.656;11.302;2022-10-31T05:13:39;2.80;;;2.13;;
33162;SDS011;29282;45.656;11.302;2022-10-31T05:16:05;4.07;;;2.25;;
33162;SDS011;29282;45.656;11.302;2022-10-31T05:18:30;4.93;;;2.05;;
33162;SDS011;29282;45.656;11.302;2022-10-31T05:20:56;3.10;;;1.95;;
33162;SDS011;29282;45.656;11.302;2022-10-31T05:23:21;3.28;;;2.47;;
33162;SDS011;29282;45.656;11.302;2022-10-31T05:25:47;5.00;;;2.20;;
33162;SDS011;29282;45.656;11.302;2022-10-31T05:28:12;4.28;;;2.08;;
33162;SDS011;29282;45.656;11.302;2022-10-31T05:30:38;4.32;;;2.42;;
33162;SDS011;29282;45.656;11.302;2022-10-31T05:33:03;3.55;;;2.42;;
33162;SDS011;29282;45.656;11.302;2022-10-31T05:35:30;4.43;;;2.00;;
33162;SDS011;29282;45.656;11.302;2022-10-31T05:37:57;4.38;;;2.10;;
33162;SDS011;29282;45.656;11.302;2022-10-31T05:40:23;3.40;;;1.98;;
33162;SDS011;29282;45.656;11.302;2022-10-31T05:42:50;2.70;;;2.10;;
33162;SDS011;29282;45.656;11.302;2022-10-31T05:45:18;3.22;;;2.15;;
33162;SDS011;29282;45.656;11.302;2022-10-31T05:47:54;2.80;;;2.13;;
33162;SDS011;29282;45.656;11.302;2022-10-31T05:50:21;2.65;;;2.00;;
33162;SDS011;29282;45.656;11.302;2022-10-31T05:52:53;3.50;;;1.80;;
33162;SDS011;29282;45.656;11.302;2022-10-31T05:55:29;2.30;;;1.75;;
33162;SDS011;29282;45.656;11.302;2022-10-31T05:57:55;3.10;;;1.90;;
33162;SDS011;29282;45.656;11.302;2022-10-31T06:00:21;2.88;;;2.25;;
33162;SDS011;29282;45.656;11.302;2022-10-31T06:02:48;2.95;;;2.25;;
33162;SDS011;29282;45.656;11.302;2022-10-31T06:05:14;3.58;;;2.05;;
33162;SDS011;29282;45.656;11.302;2022-10-31T06:07:39;3.03;;;1.90;;
33162;SDS011;29282;45.656;11.302;2022-10-31T06:10:06;3.67;;;1.92;;
33162;SDS011;29282;45.656;11.302;2022-10-31T06:12:33;3.72;;;2.15;;
33162;SDS011;29282;45.656;11.302;2022-10-31T06:15:05;2.75;;;2.17;;
33162;SDS011;29282;45.656;11.302;2022-10-31T06:17:35;3.08;;;2.00;;
33162;SDS011;29282;45.656;11.302;2022-10-31T06:20:02;2.58;;;2.15;;
33162;SDS011;29282;45.656;11.302;2022-10-31T06:22:31;3.17;;;2.20;;
33162;SDS011;29282;45.656;11.302;2022-10-31T06:24:57;3.10;;;2.00;;
33162;SDS011;29282;45.656;11.302;2022-10-31T06:27:23;3.13;;;2.47;;
33162;SDS011;29282;45.656;11.302;2022-10-31T06:29:49;3.35;;;2.50;;
33162;SDS011;29282;45.656;11.302;2022-10-31T06:32:14;3.22;;;2.30;;
33162;SDS011;29282;45.656;11.302;2022-10-31T06:34:40;3.75;;;2.30;;
33162;SDS011;29282;45.656;11.302;2022-10-31T06:37:06;4.18;;;1.90;;
33162;SDS011;29282;45.656;11.302;2022-10-31T06:39:33;3.80;;;2.10;;
33162;SDS011;29282;45.656;11.302;2022-10-31T06:41:59;2.78;;;2.10;;
33162;SDS011;29282;45.656;11.302;2022-10-31T06:44:24;4.95;;;2.40;;
33162;SDS011;29282;45.656;11.302;2022-10-31T06:46:50;2.88;;;2.30;;
33162;SDS011;29282;45.656;11.302;2022-10-31T06:49:15;3.83;;;2.17;;
33162;SDS011;29282;45.656;11.302;2022-10-31T06:51:41;3.97;;;2.38;;
33162;SDS011;29282;45.656;11.302;2022-10-31T06:54:07;4.00;;;1.95;;
33162;SDS011;29282;45.656;11.302;2022-10-31T06:56:32;3.53;;;2.22;;
33162;SDS011;29282;45.656;11.302;2022-10-31T06:58:58;4.10;;;2.03;;
33162;SDS011;29282;45.656;11.302;2022-10-31T07:01:23;3.83;;;2.25;;
33162;SDS011;29282;45.656;11.302;2022-10-31T07:03:49;5.97;;;2.17;;
33162;SDS011;29282;45.656;11.302;2022-10-31T07:06:17;3.13;;;2.30;;
33162;SDS011;29282;45.656;11.302;2022-10-31T07:08:43;2.53;;;2.03;;
33162;SDS011;29282;45.656;11.302;2022-10-31T07:11:08;6.78;;;2.30;;
33162;SDS011;29282;45.656;11.302;2022-10-31T07:13:34;4.90;;;1.92;;
33162;SDS011;29282;45.656;11.302;2022-10-31T07:16:00;4.97;;;2.30;;
33162;SDS011;29282;45.656;11.302;2022-10-31T07:18:27;5.07;;;2.30;;
33162;SDS011;29282;45.656;11.302;2022-10-31T07:20:53;6.10;;;2.65;;
33162;SDS011;29282;45.656;11.302;2022-10-31T07:23:19;12.07;;;2.30;;
33162;SDS011;29282;45.656;11.302;2022-10-31T07:25:44;3.78;;;1.92;;
33162;SDS011;29282;45.656;11.302;2022-10-31T07:28:10;4.05;;;1.98;;
33162;SDS011;29282;45.656;11.302;2022-10-31T07:30:36;5.07;;;2.20;;
33162;SDS011;29282;45.656;11.302;2022-10-31T07:33:02;5.65;;;2.03;;
33162;SDS011;29282;45.656;11.302;2022-10-31T07:35:29;3.10;;;2.00;;
33162;SDS011;29282;45.656;11.302;2022-10-31T07:37:55;4.22;;;2.28;;
33162;SDS011;29282;45.656;11.302;2022-10-31T07:40:21;6.53;;;2.20;;
33162;SDS011;29282;45.656;11.302;2022-10-31T07:42:48;3.60;;;1.85;;
33162;SDS011;29282;45.656;11.302;2022-10-31T07:45:16;8.95;;;2.53;;
33162;SDS011;29282;45.656;11.302;2022-10-31T07:47:44;4.72;;;2.20;;
33162;SDS011;29282;45.656;11.302;2022-10-31T07:50:20;4.63;;;2.00;;
33162;SDS011;29282;45.656;11.302;2022-10-31T07:52:47;5.00;;;2.38;;
33162;SDS011;29282;45.656;11.302;2022-10-31T07:55:13;7.03;;;2.00;;
33162;SDS011;29282;45.656;11.302;2022-10-31T07:57:39;3.85;;;2.03;;
33162;SDS011;29282;45.656;11.302;2022-10-31T08:00:08;4.57;;;2.00;;
33162;SDS011;29282;45.656;11.302;2022-10-31T08:02:35;5.47;;;2.20;;
33162;SDS011;29282;45.656;11.302;2022-10-31T08:05:00;5.50;;;2.08;;
33162;SDS011;29282;45.656;11.302;2022-10-31T08:07:29;5.38;;;2.00;;
33162;SDS011;29282;45.656;11.302;2022-10-31T08:09:55;3.30;;;2.28;;
33162;SDS011;29282;45.656;11.302;2022-10-31T08:12:21;4.75;;;2.10;;
33162;SDS011;29282;45.656;11.302;2022-10-31T08:14:46;4.03;;;2.05;;
33162;SDS011;29282;45.656;11.302;2022-10-31T08:17:12;2.72;;;1.92;;
33162;SDS011;29282;45.656;11.302;2022-10-31T08:19:38;5.07;;;2.08;;
33162;SDS011;29282;45.656;11.302;2022-10-31T08:22:03;5.07;;;2.00;;
33162;SDS011;29282;45.656;11.302;2022-10-31T08:24:29;5.43;;;2.38;;
33162;SDS011;29282;45.656;11.302;2022-10-31T08:26:54;6.30;;;2.30;;
33162;SDS011;29282;45.656;11.302;2022-10-31T08:29:20;5.53;;;2.00;;
33162;SDS011;29282;45.656;11.302;2022-10-31T08:31:45;3.75;;;2.10;;
33162;SDS011;29282;45.656;11.302;2022-10-31T08:34:11;6.40;;;2.35;;
33162;SDS011;29282;45.656;11.302;2022-10-31T08:36:36;4.15;;;2.20;;
33162;SDS011;29282;45.656;11.302;2022-10-31T08:39:02;3.95;;;1.95;;
33162;SDS011;29282;45.656;11.302;2022-10-31T08:41:28;5.78;;;2.72;;
33162;SDS011;29282;45.656;11.302;2022-10-31T08:43:54;4.45;;;1.92;;
33162;SDS011;29282;45.656;11.302;2022-10-31T08:46:19;3.65;;;1.90;;
33162;SDS011;29282;45.656;11.302;2022-10-31T08:48:47;4.40;;;2.20;;
33162;SDS011;29282;45.656;11.302;2022-10-31T08:51:13;2.70;;;1.80;;
33162;SDS011;29282;45.656;11.302;2022-10-31T08:53:38;2.88;;;1.77;;
33162;SDS011;29282;45.656;11.302;2022-10-31T08:56:04;3.55;;;1.95;;
33162;SDS011;29282;45.656;11.302;2022-10-31T08:58:30;5.32;;;2.00;;
33162;SDS011;29282;45.656;11.302;2022-10-31T09:00:55;3.50;;;2.10;;
33162;SDS011;29282;45.656;11.302;2022-10-31T09:03:24;3.33;;;1.80;;
33162;SDS011;29282;45.656;11.302;2022-10-31T09:05:54;3.65;;;1.88;;
33162;SDS011;29282;45.656;11.302;2022-10-31T09:08:21;6.18;;;2.75;;
33162;SDS011;29282;45.656;11.302;2022-10-31T09:10:46;3.53;;;1.75;;
33162;SDS011;29282;45.656;11.302;2022-10-31T09:13:13;2.50;;;1.98;;
33162;SDS011;29282;45.656;11.302;2022-10-31T09:15:44;3.03;;;2.13;;
33162;SDS011;29282;45.656;11.302;2022-10-31T09:18:11;2.80;;;2.10;;
33162;SDS011;29282;45.656;11.302;2022-10-31T09:20:41;3.35;;;1.92;;
33162;SDS011;29282;45.656;11.302;2022-10-31T09:23:18;2.78;;;2.00;;
33162;SDS011;29282;45.656;11.302;2022-10-31T09:25:46;2.85;;;1.73;;
33162;SDS011;29282;45.656;11.302;2022-10-31T09:28:13;4.05;;;1.98;;
33162;SDS011;29282;45.656;11.302;2022-10-31T09:30:41;3.08;;;1.75;;
33162;SDS011;29282;45.656;11.302;2022-10-31T09:33:10;2.92;;;1.80;;
33162;SDS011;29282;45.656;11.302;2022-10-31T09:35:37;2.58;;;1.98;;
33162;SDS011;29282;45.656;11.302;2022-10-31T09:38:05;3.33;;;2.08;;
33162;SDS011;29282;45.656;11.302;2022-10-31T09:43:20;4.30;;;1.88;;
33162;SDS011;29282;45.656;11.302;2022-10-31T09:51:24;3.28;;;2.10;;
33162;SDS011;29282;45.656;11.302;2022-10-31T09:56:31;5.32;;;2.15;;
33162;SDS011;29282;45.656;11.302;2022-10-31T09:59:01;3.20;;;1.90;;
33162;SDS011;29282;45.656;11.302;2022-10-31T10:06:44;2.58;;;1.70;;
33162;SDS011;29282;45.656;11.302;2022-10-31T10:09:12;2.33;;;1.80;;
33162;SDS011;29282;45.656;11.302;2022-10-31T10:14:19;2.67;;;1.92;;
33162;SDS011;29282;45.656;11.302;2022-10-31T10:24:39;2.63;;;1.63;;
33162;SDS011;29282;45.656;11.302;2022-10-31T10:30:20;3.10;;;1.88;;
33162;SDS011;29282;45.656;11.302;2022-10-31T10:32:52;2.15;;;1.83;;
33162;SDS011;29282;45.656;11.302;2022-10-31T10:35:28;2.65;;;1.70;;
33162;SDS011;29282;45.656;11.302;2022-10-31T10:38:09;2.47;;;1.65;;
33162;SDS011;29282;45.656;11.302;2022-10-31T10:40:53;2.70;;;1.80;;
33162;SDS011;29282;45.656;11.302;2022-10-31T10:46:05;4.95;;;2.13;;
33162;SDS011;29282;45.656;11.302;2022-10-31T10:49:04;4.53;;;1.60;;
33162;SDS011;29282;45.656;11.302;2022-10-31T10:51:52;3.60;;;2.03;;
33162;SDS011;29282;45.656;11.302;2022-10-31T10:57:33;2.08;;;1.60;;
33162;SDS011;29282;45.656;11.302;2022-10-31T11:00:01;2.08;;;1.80;;
33162;SDS011;29282;45.656;11.302;2022-10-31T11:02:42;2.53;;;2.05;;
33162;SDS011;29282;45.656;11.302;2022-10-31T11:05:21;3.20;;;1.77;;
33162;SDS011;29282;45.656;11.302;2022-10-31T11:07:49;2.47;;;1.80;;
33162;SDS011;29282;45.656;11.302;2022-10-31T11:10:15;2.53;;;1.58;;
33162;SDS011;29282;45.656;11.302;2022-10-31T11:12:42;2.67;;;1.60;;
33162;SDS011;29282;45.656;11.302;2022-10-31T11:15:20;2.15;;;1.70;;
33162;SDS011;29282;45.656;11.302;2022-10-31T11:17:49;2.22;;;1.60;;
33162;SDS011;29282;45.656;11.302;2022-10-31T11:22:43;2.38;;;1.80;;
33162;SDS011;29282;45.656;11.302;2022-10-31T11:27:44;1.73;;;1.50;;
33162;SDS011;29282;45.656;11.302;2022-10-31T11:30:12;2.45;;;1.80;;
33162;SDS011;29282;45.656;11.302;2022-10-31T11:32:47;3.00;;;1.67;;
33162;SDS011;29282;45.656;11.302;2022-10-31T11:35:18;3.90;;;1.90;;
33162;SDS011;29282;45.656;11.302;2022-10-31T11:37:47;2.10;;;1.80;;
33162;SDS011;29282;45.656;11.302;2022-10-31T11:40:22;3.55;;;1.60;;
33162;SDS011;29282;45.656;11.302;2022-10-31T11:42:50;3.58;;;1.60;;
33162;SDS011;29282;45.656;11.302;2022-10-31T11:45:27;2.45;;;1.83;;
33162;SDS011;29282;45.656;11.302;2022-10-31T11:47:56;4.45;;;1.60;;
33162;SDS011;29282;45.656;11.302;2022-10-31T11:50:36;4.20;;;2.30;;
33162;SDS011;29282;45.656;11.302;2022-10-31T11:53:12;2.13;;;1.70;;
33162;SDS011;29282;45.656;11.302;2022-10-31T11:55:46;2.22;;;1.77;;
33162;SDS011;29282;45.656;11.302;2022-10-31T11:58:23;3.78;;;2.13;;
33162;SDS011;29282;45.656;11.302;2022-10-31T12:00:51;2.28;;;1.80;;
33162;SDS011;29282;45.656;11.302;2022-10-31T12:08:51;1.60;;;1.50;;
33162;SDS011;29282;45.656;11.302;2022-10-31T12:11:22;3.05;;;1.90;;
33162;SDS011;29282;45.656;11.302;2022-10-31T12:24:35;3.50;;;1.80;;
33162;SDS011;29282;45.656;11.302;2022-10-31T12:27:33;1.90;;;1.73;;
33162;SDS011;29282;45.656;11.302;2022-10-31T12:30:19;2.75;;;1.60;;
33162;SDS011;29282;45.656;11.302;2022-10-31T12:46:12;2.90;;;1.80;;
33162;SDS011;29282;45.656;11.302;2022-10-31T12:57:00;4.28;;;2.00;;
33162;SDS011;29282;45.656;11.302;2022-10-31T13:02:03;4.13;;;2.10;;
33162;SDS011;29282;45.656;11.302;2022-10-31T13:04:50;3.83;;;1.88;;
33162;SDS011;29282;45.656;11.302;2022-10-31T13:08:03;3.35;;;1.67;;
33162;SDS011;29282;45.656;11.302;2022-10-31T13:12:37;3.35;;;1.92;;
33162;SDS011;29282;45.656;11.302;2022-10-31T13:18:00;2.97;;;1.73;;
33162;SDS011;29282;45.656;11.302;2022-10-31T13:20:33;2.38;;;1.70;;
33162;SDS011;29282;45.656;11.302;2022-10-31T13:28:11;2.00;;;1.83;;
33162;SDS011;29282;45.656;11.302;2022-10-31T13:30:47;4.57;;;2.22;;
33162;SDS011;29282;45.656;11.302;2022-10-31T13:48:58;2.70;;;1.77;;
33162;SDS011;29282;45.656;11.302;2022-10-31T13:51:27;4.07;;;1.80;;
33162;SDS011;29282;45.656;11.302;2022-10-31T13:56:21;3.67;;;1.60;;
33162;SDS011;29282;45.656;11.302;2022-10-31T14:01:34;5.25;;;2.03;;
33162;SDS011;29282;45.656;11.302;2022-10-31T14:04:04;4.60;;;1.80;;
33162;SDS011;29282;45.656;11.302;2022-10-31T14:06:38;4.82;;;2.10;;
33162;SDS011;29282;45.656;11.302;2022-10-31T14:11:53;5.55;;;1.90;;
33162;SDS011;29282;45.656;11.302;2022-10-31T14:14:21;4.55;;;1.98;;
33162;SDS011;29282;45.656;11.302;2022-10-31T14:16:55;3.05;;;2.10;;
33162;SDS011;29282;45.656;11.302;2022-10-31T14:19:22;3.00;;;1.92;;
33162;SDS011;29282;45.656;11.302;2022-10-31T14:21:48;3.75;;;1.80;;
33162;SDS011;29282;45.656;11.302;2022-10-31T14:26:59;3.28;;;1.38;;
33162;SDS011;29282;45.656;11.302;2022-10-31T14:29:29;13.48;;;2.10;;
33162;SDS011;29282;45.656;11.302;2022-10-31T14:37:14;6.13;;;1.88;;
33162;SDS011;29282;45.656;11.302;2022-10-31T14:50:50;8.40;;;1.75;;
33162;SDS011;29282;45.656;11.302;2022-10-31T14:53:39;3.72;;;1.67;;
33162;SDS011;29282;45.656;11.302;2022-10-31T14:56:11;4.32;;;2.13;;
33162;SDS011;29282;45.656;11.302;2022-10-31T14:58:47;6.30;;;2.00;;
33162;SDS011;29282;45.656;11.302;2022-10-31T15:04:39;2.40;;;1.73;;
33162;SDS011;29282;45.656;11.302;2022-10-31T15:06:46;3.42;;;1.63;;
33162;SDS011;29282;45.656;11.302;2022-10-31T15:09:24;2.67;;;1.75;;
33162;SDS011;29282;45.656;11.302;2022-10-31T15:11:50;2.42;;;2.10;;
33162;SDS011;29282;45.656;11.302;2022-10-31T15:14:26;4.18;;;1.95;;
33162;SDS011;29282;45.656;11.302;2022-10-31T15:16:57;2.90;;;1.80;;
33162;SDS011;29282;45.656;11.302;2022-10-31T15:19:25;4.63;;;2.17;;
33162;SDS011;29282;45.656;11.302;2022-10-31T15:21:57;4.33;;;2.17;;
33162;SDS011;29282;45.656;11.302;2022-10-31T15:24:33;2.47;;;2.00;;
33162;SDS011;29282;45.656;11.302;2022-10-31T15:27:00;2.40;;;1.70;;
33162;SDS011;29282;45.656;11.302;2022-10-31T15:29:27;3.25;;;1.77;;
33162;SDS011;29282;45.656;11.302;2022-10-31T15:31:58;3.10;;;1.75;;
33162;SDS011;29282;45.656;11.302;2022-10-31T15:34:44;4.13;;;2.30;;
33162;SDS011;29282;45.656;11.302;2022-10-31T15:37:13;3.03;;;2.10;;
33162;SDS011;29282;45.656;11.302;2022-10-31T15:39:41;3.67;;;2.20;;
33162;SDS011;29282;45.656;11.302;2022-10-31T15:44:46;2.88;;;2.00;;
33162;SDS011;29282;45.656;11.302;2022-10-31T15:47:39;3.55;;;2.00;;
33162;SDS011;29282;45.656;11.302;2022-10-31T15:50:34;3.40;;;2.10;;
33162;SDS011;29282;45.656;11.302;2022-10-31T15:53:03;2.33;;;1.98;;
33162;SDS011;29282;45.656;11.302;2022-10-31T15:55:31;3.03;;;2.22;;
33162;SDS011;29282;45.656;11.302;2022-10-31T15:58:03;4.40;;;2.20;;
33162;SDS011;29282;45.656;11.302;2022-10-31T16:00:38;2.53;;;1.83;;
33162;SDS011;29282;45.656;11.302;2022-10-31T16:05:52;2.80;;;1.88;;
33162;SDS011;29282;45.656;11.302;2022-10-31T16:10:54;2.75;;;2.00;;
33162;SDS011;29282;45.656;11.302;2022-10-31T16:13:36;3.22;;;2.08;;
33162;SDS011;29282;45.656;11.302;2022-10-31T16:16:12;3.10;;;1.85;;
33162;SDS011;29282;45.656;11.302;2022-10-31T16:18:40;3.83;;;1.80;;
33162;SDS011;29282;45.656;11.302;2022-10-31T16:21:06;2.60;;;1.80;;
33162;SDS011;29282;45.656;11.302;2022-10-31T16:23:33;2.97;;;1.95;;
33162;SDS011;29282;45.656;11.302;2022-10-31T16:26:05;3.38;;;2.10;;
33162;SDS011;29282;45.656;11.302;2022-10-31T16:28:31;2.60;;;1.92;;
33162;SDS011;29282;45.656;11.302;2022-10-31T16:30:58;2.42;;;1.80;;
33162;SDS011;29282;45.656;11.302;2022-10-31T16:33:28;3.58;;;2.05;;
33162;SDS011;29282;45.656;11.302;2022-10-31T16:35:59;3.72;;;2.00;;
33162;SDS011;29282;45.656;11.302;2022-10-31T16:38:27;2.75;;;2.10;;
33162;SDS011;29282;45.656;11.302;2022-10-31T16:40:52;2.88;;;2.00;;
33162;SDS011;29282;45.656;11.302;2022-10-31T16:43:19;2.17;;;1.90;;
33162;SDS011;29282;45.656;11.302;2022-10-31T16:45:48;3.67;;;2.00;;
33162;SDS011;29282;45.656;11.302;2022-10-31T16:48:16;2.67;;;1.92;;
33162;SDS011;29282;45.656;11.302;2022-10-31T16:50:44;2.85;;;1.92;;
33162;SDS011;29282;45.656;11.302;2022-10-31T16:53:11;2.90;;;2.10;;
33162;SDS011;29282;45.656;11.302;2022-10-31T16:55:59;3.33;;;2.00;;
33162;SDS011;29282;45.656;11.302;2022-10-31T16:58:28;4.05;;;2.10;;
33162;SDS011;29282;45.656;11.302;2022-10-31T17:00:55;2.15;;;1.90;;
33162;SDS011;29282;45.656;11.302;2022-10-31T17:03:22;2.83;;;2.20;;
33162;SDS011;29282;45.656;11.302;2022-10-31T17:05:47;4.90;;;2.10;;
33162;SDS011;29282;45.656;11.302;2022-10-31T17:08:13;3.10;;;1.90;;
33162;SDS011;29282;45.656;11.302;2022-10-31T17:10:39;5.10;;;2.20;;
33162;SDS011;29282;45.656;11.302;2022-10-31T17:13:08;2.58;;;1.90;;
33162;SDS011;29282;45.656;11.302;2022-10-31T17:15:43;2.38;;;1.98;;
33162;SDS011;29282;45.656;11.302;2022-10-31T17:18:11;2.40;;;1.90;;
33162;SDS011;29282;45.656;11.302;2022-10-31T17:20:44;4.20;;;2.22;;
33162;SDS011;29282;45.656;11.302;2022-10-31T17:23:11;2.63;;;2.00;;
33162;SDS011;29282;45.656;11.302;2022-10-31T17:25:38;3.58;;;2.17;;
33162;SDS011;29282;45.656;11.302;2022-10-31T17:28:04;2.47;;;2.17;;
33162;SDS011;29282;45.656;11.302;2022-10-31T17:30:30;3.38;;;2.08;;
33162;SDS011;29282;45.656;11.302;2022-10-31T17:32:57;4.35;;;2.40;;
33162;SDS011;29282;45.656;11.302;2022-10-31T17:35:22;2.45;;;2.00;;
33162;SDS011;29282;45.656;11.302;2022-10-31T17:37:48;4.43;;;2.33;;
33162;SDS011;29282;45.656;11.302;2022-10-31T17:40:18;3.28;;;2.00;;
33162;SDS011;29282;45.656;11.302;2022-10-31T17:42:52;3.15;;;2.45;;
33162;SDS011;29282;45.656;11.302;2022-10-31T17:45:19;3.03;;;2.10;;
33162;SDS011;29282;45.656;11.302;2022-10-31T17:47:46;3.50;;;2.20;;